createdAt,value
2023-03-29T00:04:55.412Z,-3.17
2023-03-29T00:10:04.827Z,-3.19
2023-03-29T00:15:09.240Z,-3.21
2023-03-29T00:20:14.680Z,-3.22
2023-03-29T00:25:18.241Z,-3.23
2023-03-29T00:30:24.295Z,-3.14
2023-03-29T00:35:29.360Z,-3.05
2023-03-29T00:40:35.850Z,-3.02
2023-03-29T00:45:41.071Z,-3.02
2023-03-29T00:50:56.383Z,-3.04
2023-03-29T00:56:21.847Z,-3.11
2023-03-29T01:01:55.428Z,-3.20
2023-03-29T01:07:18.849Z,-3.27
2023-03-29T01:12:33.781Z,-3.36
2023-03-29T01:17:40.364Z,-3.45
2023-03-29T01:23:08.283Z,-3.54
2023-03-29T01:28:32.300Z,-3.64
2023-03-29T01:33:49.732Z,-3.74
2023-03-29T01:38:58.391Z,-3.83
2023-03-29T01:44:35.437Z,-3.88
2023-03-29T01:49:48.042Z,-3.91
2023-03-29T01:55:14.046Z,-3.94
2023-03-29T02:00:23.286Z,-3.95
2023-03-29T02:05:32.959Z,-3.89
2023-03-29T02:10:38.558Z,-3.84
2023-03-29T02:15:45.939Z,-3.83
2023-03-29T02:20:51.876Z,-3.81
2023-03-29T02:25:57.454Z,-3.82
2023-03-29T02:31:34.974Z,-3.91
2023-03-29T02:36:55.422Z,-4.15
2023-03-29T02:42:01.898Z,-4.35
2023-03-29T02:47:17.988Z,-4.47
2023-03-29T02:52:42.536Z,-4.58
2023-03-29T02:57:47.710Z,-4.66
2023-03-29T03:02:52.730Z,-4.70
2023-03-29T03:07:59.036Z,-4.73
2023-03-29T03:13:04.720Z,-4.77
2023-03-29T03:18:09.997Z,-4.85
2023-03-29T03:23:14.206Z,-4.96
2023-03-29T03:28:19.223Z,-5.08
2023-03-29T03:33:23.143Z,-5.19
2023-03-29T03:38:27.911Z,-5.28
2023-03-29T03:43:31.750Z,-5.31
2023-03-29T03:48:38.709Z,-5.36
2023-03-29T03:53:42.793Z,-5.44
2023-03-29T03:58:49.145Z,-5.39
2023-03-29T04:03:54.390Z,-5.37
2023-03-29T04:09:00.241Z,-5.43
2023-03-29T04:14:05.308Z,-5.50
2023-03-29T04:19:09.736Z,-5.59
2023-03-29T04:24:15.261Z,-5.71
2023-03-29T04:29:19.605Z,-5.76
2023-03-29T04:34:24.482Z,-5.65
2023-03-29T04:39:34.999Z,-5.55
2023-03-29T04:44:40.997Z,-5.50
2023-03-29T04:49:45.396Z,-5.41
2023-03-29T04:54:49.947Z,-5.36
2023-03-29T04:59:54.232Z,-5.35
2023-03-29T05:04:59.351Z,-5.34
2023-03-29T05:10:04.613Z,-5.21
2023-03-29T05:15:10.231Z,-5.08
2023-03-29T05:20:14.973Z,-4.93
2023-03-29T05:25:19.989Z,-4.80
2023-03-29T05:30:24.687Z,-4.68
2023-03-29T05:35:30.021Z,-4.51
2023-03-29T05:40:34.880Z,-4.26
2023-03-29T05:45:39.702Z,-3.94
2023-03-29T05:50:49.927Z,-3.70
2023-03-29T05:55:54.998Z,-3.49
2023-03-29T06:01:01.567Z,-3.31
2023-03-29T06:06:05.889Z,-3.14
2023-03-29T06:11:11.503Z,-2.97
2023-03-29T06:16:15.442Z,-2.73
2023-03-29T06:21:19.927Z,-2.45
2023-03-29T06:26:23.440Z,-2.22
2023-03-29T06:31:27.035Z,-2.05
2023-03-29T06:36:31.923Z,-1.86
2023-03-29T06:41:35.568Z,-1.66
2023-03-29T06:46:39.598Z,-1.48
2023-03-29T06:51:43.543Z,-1.30
2023-03-29T06:56:47.757Z,-1.08
2023-03-29T07:01:53.007Z,-0.68
2023-03-29T07:07:06.951Z,-0.28
2023-03-29T07:12:11.428Z,0.07
2023-03-29T07:17:17.453Z,0.77
2023-03-29T07:22:24.798Z,2.09
2023-03-29T07:27:28.866Z,3.79
2023-03-29T07:32:34.291Z,5.58
2023-03-29T07:37:38.454Z,6.95
2023-03-29T07:42:47.025Z,7.70
2023-03-29T07:47:55.948Z,8.22
2023-03-29T07:53:01.107Z,8.73
2023-03-29T07:58:04.791Z,9.17
2023-03-29T08:03:12.896Z,9.21
2023-03-29T08:08:16.647Z,9.28
2023-03-29T08:13:19.951Z,9.17
2023-03-29T08:18:24.305Z,8.98
2023-03-29T08:23:28.338Z,8.86
2023-03-29T08:28:32.445Z,8.70
2023-03-29T08:33:36.905Z,8.58
2023-03-29T08:38:41.011Z,8.52
2023-03-29T08:43:53.217Z,8.33
2023-03-29T08:49:03.025Z,8.21
2023-03-29T08:54:12.932Z,8.28
2023-03-29T08:59:32.984Z,8.41
2023-03-29T09:04:40.042Z,8.47
2023-03-29T09:09:47.782Z,8.55
2023-03-29T09:14:52.837Z,8.62
2023-03-29T09:20:28.180Z,8.62
2023-03-29T09:25:54.388Z,8.78
2023-03-29T09:31:14.792Z,8.89
2023-03-29T09:36:53.137Z,9.00
2023-03-29T09:42:08.314Z,9.04
2023-03-29T09:47:24.048Z,9.10
2023-03-29T09:52:28.590Z,9.21
2023-03-29T09:57:32.992Z,9.33
2023-03-29T10:02:37.031Z,9.50
2023-03-29T10:07:46.045Z,9.50
2023-03-29T10:12:52.196Z,9.53
2023-03-29T10:18:07.188Z,9.58
2023-03-29T10:23:19.923Z,9.60
2023-03-29T10:28:27.137Z,9.57
2023-03-29T10:33:35.070Z,9.66
2023-03-29T10:38:40.310Z,9.80
2023-03-29T10:43:47.868Z,9.93
2023-03-29T10:49:07.031Z,10.01
2023-03-29T10:54:15.681Z,10.13
2023-03-29T10:59:41.289Z,10.05
2023-03-29T11:04:53.331Z,10.06
2023-03-29T11:10:27.982Z,10.08
2023-03-29T11:16:03.200Z,10.10
2023-03-29T11:21:14.511Z,10.24
2023-03-29T11:26:27.672Z,10.35
2023-03-29T11:32:10.231Z,10.53
2023-03-29T11:37:40.972Z,10.51
2023-03-29T11:42:49.008Z,10.51
2023-03-29T11:47:54.725Z,10.51
2023-03-29T11:53:05.650Z,10.51
2023-03-29T11:58:23.667Z,10.54
2023-03-29T12:04:05.915Z,10.51
2023-03-29T12:09:25.759Z,10.51
2023-03-29T12:15:02.375Z,10.42
2023-03-29T12:20:29.815Z,10.36
2023-03-29T12:26:01.214Z,10.38
2023-03-29T12:31:21.267Z,10.39
2023-03-29T12:37:07.212Z,10.52
2023-03-29T12:42:20.078Z,10.57
2023-03-29T12:47:28.184Z,10.49
2023-03-29T12:52:36.525Z,10.52
2023-03-29T12:57:45.557Z,10.54
2023-03-29T13:03:04.947Z,10.62
2023-03-29T13:08:22.940Z,10.61
2023-03-29T13:13:38.896Z,10.55
2023-03-29T13:19:03.434Z,10.60
2023-03-29T13:24:22.433Z,10.49
2023-03-29T13:29:54.023Z,10.39
2023-03-29T13:35:16.518Z,10.36
2023-03-29T13:40:47.057Z,10.41
2023-03-29T13:45:59.993Z,10.41
2023-03-29T13:51:27.719Z,10.44
2023-03-29T13:56:52.872Z,10.44
2023-03-29T14:02:00.948Z,10.40
2023-03-29T14:07:10.140Z,10.31
2023-03-29T14:12:16.176Z,10.31
2023-03-29T14:17:24.083Z,10.35
2023-03-29T14:22:34.429Z,10.36
2023-03-29T14:27:38.220Z,10.23
2023-03-29T14:32:41.937Z,10.04
2023-03-29T14:37:46.860Z,9.97
2023-03-29T14:42:51.656Z,9.96
2023-03-29T14:47:55.945Z,9.85
2023-03-29T14:53:01.015Z,9.69
2023-03-29T14:58:16.804Z,9.59
2023-03-29T15:03:27.889Z,9.35
2023-03-29T15:08:38.228Z,9.16
2023-03-29T15:13:45.385Z,8.99
2023-03-29T15:18:53.570Z,8.85
2023-03-29T15:24:00.983Z,8.84
2023-03-29T15:29:23.842Z,8.88
2023-03-29T15:34:30.098Z,8.91
2023-03-29T15:39:34.000Z,8.92
2023-03-29T15:44:39.701Z,8.88
2023-03-29T15:49:43.659Z,8.80
2023-03-29T15:54:47.867Z,8.74
2023-03-29T15:59:52.154Z,8.68
2023-03-29T16:04:56.069Z,8.69
2023-03-29T16:09:59.698Z,8.65
2023-03-29T16:15:19.190Z,8.64
2023-03-29T16:20:22.642Z,8.57
2023-03-29T16:25:28.214Z,8.50
2023-03-29T16:30:33.107Z,8.43
2023-03-29T16:35:40.884Z,8.34
2023-03-29T16:40:45.778Z,8.10
2023-03-29T16:45:49.950Z,7.97
2023-03-29T16:50:53.442Z,7.81
2023-03-29T16:56:05.970Z,7.63
2023-03-29T17:01:13.676Z,7.45
2023-03-29T17:06:17.827Z,7.24
2023-03-29T17:11:24.387Z,7.04
2023-03-29T17:16:29.595Z,6.89
2023-03-29T17:21:34.251Z,6.69
2023-03-29T17:26:38.545Z,6.47
2023-03-29T17:31:48.115Z,6.32
2023-03-29T17:36:53.915Z,6.09
2023-03-29T17:41:57.572Z,5.91
2023-03-29T17:47:01.984Z,5.82
2023-03-29T17:52:07.048Z,5.64
2023-03-29T17:57:11.904Z,5.39
2023-03-29T18:02:22.285Z,5.12
2023-03-29T18:07:26.036Z,4.92
2023-03-29T18:12:30.555Z,4.77
2023-03-29T18:17:37.441Z,4.68
2023-03-29T18:22:42.729Z,4.65
2023-03-29T18:27:47.285Z,4.52
2023-03-29T18:32:53.487Z,4.41
2023-03-29T18:37:59.616Z,4.32
2023-03-29T18:43:03.871Z,4.26
2023-03-29T18:48:08.431Z,4.25
2023-03-29T18:53:15.869Z,4.28
2023-03-29T18:58:24.259Z,4.29
2023-03-29T19:03:29.534Z,4.27
2023-03-29T19:08:37.330Z,4.30
2023-03-29T19:13:47.176Z,4.34
2023-03-29T19:18:52.618Z,4.38
2023-03-29T19:23:56.403Z,4.41
2023-03-29T19:29:02.489Z,4.42
2023-03-29T19:34:11.879Z,4.44
2023-03-29T19:39:18.998Z,4.44
2023-03-29T19:44:24.910Z,4.46
2023-03-29T19:49:29.850Z,4.46
2023-03-29T19:54:34.824Z,4.44
2023-03-29T19:59:41.231Z,4.43
2023-03-29T20:04:46.908Z,4.42
2023-03-29T20:09:52.614Z,4.40
2023-03-29T20:14:56.367Z,4.39
2023-03-29T20:20:01.137Z,4.37
2023-03-29T20:25:05.862Z,4.34
2023-03-29T20:30:11.421Z,4.24
2023-03-29T20:35:16.016Z,4.20
2023-03-29T20:40:21.240Z,4.12
2023-03-29T20:45:26.275Z,4.07
2023-03-29T20:50:30.762Z,3.99
2023-03-29T20:55:35.482Z,3.92
2023-03-29T21:00:40.940Z,3.84
2023-03-29T21:05:45.656Z,3.72
2023-03-29T21:10:49.581Z,3.62
2023-03-29T21:15:54.241Z,3.53
2023-03-29T21:20:58.268Z,3.45
2023-03-29T21:26:03.510Z,3.35
2023-03-29T21:31:08.499Z,3.25
2023-03-29T21:36:13.183Z,3.20
2023-03-29T21:41:18.763Z,3.17
2023-03-29T21:46:25.130Z,3.18
2023-03-29T21:51:29.188Z,3.21
2023-03-29T21:56:33.530Z,3.25
2023-03-29T22:01:38.598Z,3.29
2023-03-29T22:06:43.662Z,3.33
2023-03-29T22:11:49.140Z,3.34
2023-03-29T22:16:53.636Z,3.36
2023-03-29T22:22:02.122Z,3.39
2023-03-29T22:27:07.015Z,3.42
2023-03-29T22:32:11.530Z,3.45
2023-03-29T22:37:15.584Z,3.46
2023-03-29T22:48:09.158Z,3.47
2023-03-29T22:53:14.054Z,3.47
2023-03-29T23:03:54.157Z,3.56
2023-03-29T23:08:58.515Z,3.58
2023-03-29T23:14:06.461Z,3.61
2023-03-29T23:19:10.927Z,3.63
2023-03-29T23:24:19.252Z,3.67
2023-03-29T23:29:26.724Z,3.71
2023-03-29T23:34:31.056Z,3.73
2023-03-29T23:39:35.176Z,3.73
2023-03-29T23:44:40.308Z,3.77
2023-03-29T23:49:45.778Z,3.79
2023-03-29T23:54:51.990Z,3.83
